Time;durP1;ratioP1;P1;durP2;ratioP2;P2;SDS_P1;SDS_P2;PMS_P1;PMS_P2;Temp;Humidity;BMP_temperature;BMP_pressure;BME280_temperature;BME280_humidity;BME280_pressure;Samples;Min_cycle;Max_cycle;Signal;HPM_P1;HPM_P2
2022/05/03 00:02:00;;;;;;;76.03;25.05;;;;;;;;;;5025796;28;20033;-81
2022/05/03 00:04:29;;;;;;;77.53;24.95;;;;;;;;;;5026762;28;20080;-81
2022/05/03 00:07:12;;;;;;;77.68;25.42;;;;;;;;;;5022794;28;20037;-80
2022/05/03 00:09:50;;;;;;;69.72;23.60;;;;;;;;;;5024308;28;20064;-81
2022/05/03 00:12:23;;;;;;;68.75;24.55;;;;;;;;;;5023199;28;20029;-80
2022/05/03 00:14:55;;;;;;;68.88;23.88;;;;;;;;;;5019300;28;20056;-79
2022/05/03 00:17:22;;;;;;;68.50;25.42;;;;;;;;;;5023710;28;20041;-80
2022/05/03 00:19:48;;;;;;;77.47;25.10;;;;;;;;;;5024974;28;20033;-81
2022/05/03 00:22:14;;;;;;;75.50;25.67;;;;;;;;;;5024411;28;20064;-80
2022/05/03 00:24:41;;;;;;;70.18;24.55;;;;;;;;;;5018832;28;20029;-80
2022/05/03 00:27:07;;;;;;;72.88;24.40;;;;;;;;;;5021804;28;20522;-81
2022/05/03 00:29:33;;;;;;;76.18;25.55;;;;;;;;;;5025802;28;20021;-81
2022/05/03 00:32:02;;;;;;;75.72;25.80;;;;;;;;;;5022524;28;20514;-80
2022/05/03 00:34:35;;;;;;;73.55;24.73;;;;;;;;;;5018447;28;20108;-81
2022/05/03 00:37:01;;;;;;;73.97;24.70;;;;;;;;;;5024963;28;20045;-80
2022/05/03 00:39:27;;;;;;;81.00;27.27;;;;;;;;;;5022604;28;20026;-81
2022/05/03 00:42:11;;;;;;;71.32;24.23;;;;;;;;;;5025792;28;20033;-81
2022/05/03 00:44:58;;;;;;;69.68;25.02;;;;;;;;;;5041705;28;20039;-80
2022/05/03 00:47:32;;;;;;;70.78;24.88;;;;;;;;;;5023619;28;20058;-80
2022/05/03 00:50:14;;;;;;;75.53;25.38;;;;;;;;;;5023350;28;20382;-81
2022/05/03 00:52:43;;;;;;;66.32;22.60;;;;;;;;;;5032307;28;20034;-81
2022/05/03 00:55:27;;;;;;;72.32;23.60;;;;;;;;;;5024428;28;20030;-81
2022/05/03 00:58:42;;;;;;;73.03;24.02;;;;;;;;;;5023618;28;20034;-81
2022/05/03 01:01:38;;;;;;;65.32;24.80;;;;;;;;;;5023851;28;20592;-81
2022/05/03 01:04:19;;;;;;;65.68;23.83;;;;;;;;;;5028539;28;20037;-81
2022/05/03 01:06:53;;;;;;;74.38;24.48;;;;;;;;;;5029620;28;20054;-81
2022/05/03 01:09:36;;;;;;;62.50;22.80;;;;;;;;;;5041270;28;20065;-81
2022/05/03 01:12:14;;;;;;;64.00;23.13;;;;;;;;;;5048289;28;20036;-81
2022/05/03 01:15:07;;;;;;;64.93;24.55;;;;;;;;;;5031524;28;20006;-81
2022/05/03 01:18:25;;;;;;;65.75;23.63;;;;;;;;;;5030793;28;20191;-80
2022/05/03 01:20:56;;;;;;;59.67;24.00;;;;;;;;;;5004626;28;20030;-80
2022/05/03 01:23:41;;;;;;;60.47;22.48;;;;;;;;;;5036542;28;20144;-81
2022/05/03 01:26:38;;;;;;;67.57;23.45;;;;;;;;;;5028828;28;20029;-81
2022/05/03 01:29:10;;;;;;;63.83;22.38;;;;;;;;;;5022095;28;20030;-81
2022/05/03 01:31:36;;;;;;;72.97;25.27;;;;;;;;;;5031086;28;20060;-81
2022/05/03 01:34:03;;;;;;;72.45;24.45;;;;;;;;;;5027808;28;20434;-80
2022/05/03 01:36:44;;;;;;;74.97;24.70;;;;;;;;;;5008787;28;20374;-81
2022/05/03 01:39:33;;;;;;;75.47;24.25;;;;;;;;;;5028547;28;20018;-80
2022/05/03 01:42:28;;;;;;;79.20;25.80;;;;;;;;;;5026489;28;20470;-81
2022/05/03 01:44:56;;;;;;;77.72;25.13;;;;;;;;;;5003238;28;20057;-80
2022/05/03 01:47:52;;;;;;;80.75;25.70;;;;;;;;;;5017586;28;20056;-80
2022/05/03 01:50:32;;;;;;;75.47;24.02;;;;;;;;;;5029211;28;20018;-80
2022/05/03 01:53:18;;;;;;;79.95;25.75;;;;;;;;;;5028342;28;20038;-81
2022/05/03 01:55:55;;;;;;;81.95;23.25;;;;;;;;;;5031156;28;20044;-81
2022/05/03 01:58:27;;;;;;;102.65;26.08;;;;;;;;;;5029191;28;20715;-81
2022/05/03 02:01:39;;;;;;;102.63;27.23;;;;;;;;;;5027303;28;20458;-80
2022/05/03 02:04:29;;;;;;;105.90;27.63;;;;;;;;;;4947306;28;20037;-81
2022/05/03 02:07:09;;;;;;;97.35;25.98;;;;;;;;;;5035146;28;20279;-80
2022/05/03 02:10:29;;;;;;;94.78;28.33;;;;;;;;;;5026951;28;20026;-80
2022/05/03 02:13:01;;;;;;;96.38;25.70;;;;;;;;;;5021474;28;20074;-81
2022/05/03 02:15:50;;;;;;;93.18;26.48;;;;;;;;;;5025842;28;20069;-80
2022/05/03 02:18:30;;;;;;;102.80;25.98;;;;;;;;;;5027884;28;20025;-81
2022/05/03 02:21:04;;;;;;;95.35;26.63;;;;;;;;;;5026542;28;20117;-81
2022/05/03 02:23:42;;;;;;;95.28;27.65;;;;;;;;;;5021458;28;20033;-81
2022/05/03 02:26:11;;;;;;;110.47;27.33;;;;;;;;;;5024198;28;20071;-80
2022/05/03 02:28:46;;;;;;;104.10;28.02;;;;;;;;;;5018786;28;20049;-80
2022/05/03 02:31:18;;;;;;;108.93;28.20;;;;;;;;;;5022657;28;20092;-80
2022/05/03 02:34:00;;;;;;;105.90;28.70;;;;;;;;;;5024352;28;20025;-75
2022/05/03 02:36:27;;;;;;;;;;;;;;;;;;5023723;28;20037;-76
2022/05/03 02:39:06;;;;;;;116.32;28.77;;;;;;;;;;5017872;28;20383;-75
2022/05/03 02:41:38;;;;;;;104.97;26.92;;;;;;;;;;5022363;28;20033;-75
2022/05/03 02:44:04;;;;;;;111.32;28.13;;;;;;;;;;5024822;28;20041;-75
2022/05/03 02:46:44;;;;;;;117.63;31.13;;;;;;;;;;5020567;28;20049;-75
2022/05/03 02:49:39;;;;;;;111.47;29.02;;;;;;;;;;5020020;28;20021;-75
2022/05/03 02:52:25;;;;;;;109.80;30.60;;;;;;;;;;5021664;28;20037;-75
2022/05/03 02:55:16;;;;;;;95.25;28.85;;;;;;;;;;5022184;28;20040;-76
2022/05/03 02:58:09;;;;;;;107.35;27.13;;;;;;;;;;5021078;28;20042;-76
2022/05/03 03:03:57;;;;;;;106.18;28.38;;;;;;;;;;5021679;28;20053;-75
2022/05/03 03:06:23;;;;;;;110.35;28.83;;;;;;;;;;5013762;28;20034;-76
2022/05/03 03:08:54;;;;;;;119.70;29.45;;;;;;;;;;5039661;28;20578;-75
2022/05/03 03:11:47;;;;;;;114.30;28.73;;;;;;;;;;5021739;28;20033;-76
2022/05/03 03:14:42;;;;;;;117.05;27.15;;;;;;;;;;5025090;28;20025;-75
2022/05/03 03:17:10;;;;;;;104.35;27.98;;;;;;;;;;5034854;28;20046;-75
2022/05/03 03:19:56;;;;;;;104.78;27.85;;;;;;;;;;5005433;28;20036;-76
2022/05/03 03:22:23;;;;;;;113.90;28.20;;;;;;;;;;5020189;28;20036;-75
2022/05/03 03:24:50;;;;;;;109.63;29.50;;;;;;;;;;5019121;28;20437;-75
2022/05/03 03:27:21;;;;;;;121.30;29.88;;;;;;;;;;5015248;28;20087;-75
2022/05/03 03:29:52;;;;;;;118.25;29.15;;;;;;;;;;5021958;28;20110;-76
2022/05/03 03:32:18;;;;;;;118.65;29.38;;;;;;;;;;5022689;28;20104;-76
2022/05/03 03:34:47;;;;;;;119.78;29.73;;;;;;;;;;5022965;28;20136;-81
2022/05/03 03:37:16;;;;;;;112.13;28.73;;;;;;;;;;5020791;28;20024;-81
2022/05/03 03:39:41;;;;;;;100.47;28.17;;;;;;;;;;5027412;28;20052;-81
2022/05/03 03:42:07;;;;;;;125.40;30.30;;;;;;;;;;5028395;28;20036;-82
2022/05/03 03:44:33;;;;;;;121.25;30.75;;;;;;;;;;5024449;28;20116;-82
2022/05/03 03:47:00;;;;;;;130.23;30.35;;;;;;;;;;5025648;28;20049;-82
2022/05/03 03:49:27;;;;;;;138.15;30.63;;;;;;;;;;5022128;28;20045;-82
2022/05/03 03:51:54;;;;;;;127.70;31.60;;;;;;;;;;5024458;28;20089;-79
2022/05/03 03:54:21;;;;;;;126.18;30.58;;;;;;;;;;5023320;28;20017;-80
2022/05/03 03:56:48;;;;;;;125.85;30.17;;;;;;;;;;5026580;28;20066;-79
2022/05/03 03:59:14;;;;;;;136.57;31.52;;;;;;;;;;5027823;28;20459;-81
2022/05/03 04:01:40;;;;;;;143.68;30.80;;;;;;;;;;5007398;28;20079;-80
2022/05/03 04:04:08;;;;;;;125.88;30.60;;;;;;;;;;5021336;28;20037;-75
2022/05/03 04:06:35;;;;;;;131.10;29.02;;;;;;;;;;5004101;28;20052;-75
2022/05/03 04:09:01;;;;;;;124.40;30.27;;;;;;;;;;5021521;28;20136;-76
2022/05/03 04:11:27;;;;;;;135.90;30.63;;;;;;;;;;5020304;28;20056;-75
2022/05/03 04:13:53;;;;;;;133.70;31.92;;;;;;;;;;4992468;28;20033;-75
2022/05/03 04:16:18;;;;;;;145.27;32.83;;;;;;;;;;5017870;28;20566;-76
2022/05/03 04:18:46;;;;;;;127.20;30.38;;;;;;;;;;5002421;28;20060;-76
2022/05/03 04:21:17;;;;;;;119.63;30.20;;;;;;;;;;5022766;28;20043;-75
2022/05/03 04:23:43;;;;;;;128.48;30.20;;;;;;;;;;5019250;28;20041;-76
2022/05/03 04:26:09;;;;;;;147.35;31.90;;;;;;;;;;5021427;28;20128;-75
2022/05/03 04:28:35;;;;;;;123.78;30.00;;;;;;;;;;5022452;28;20112;-76
2022/05/03 04:31:01;;;;;;;131.07;29.50;;;;;;;;;;5021425;28;20111;-75
2022/05/03 04:33:26;;;;;;;133.63;29.75;;;;;;;;;;5026157;28;20029;-80
2022/05/03 04:35:52;;;;;;;133.95;30.58;;;;;;;;;;5031976;28;20670;-80
2022/05/03 04:38:17;;;;;;;141.65;32.13;;;;;;;;;;5028551;28;20065;-80
2022/05/03 04:40:43;;;;;;;130.23;29.25;;;;;;;;;;5031929;28;20021;-81
2022/05/03 04:43:09;;;;;;;147.77;33.33;;;;;;;;;;5016324;28;20037;-81
2022/05/03 04:45:35;;;;;;;134.82;32.10;;;;;;;;;;5015457;28;20586;-81
2022/05/03 04:48:00;;;;;;;130.05;31.75;;;;;;;;;;5030411;28;20140;-80
2022/05/03 04:50:27;;;;;;;139.57;33.65;;;;;;;;;;5031129;28;20072;-80
2022/05/03 04:52:53;;;;;;;136.07;30.70;;;;;;;;;;5028791;28;20061;-81
2022/05/03 04:55:18;;;;;;;148.98;32.80;;;;;;;;;;5016286;28;20040;-81
2022/05/03 04:57:44;;;;;;;127.38;31.77;;;;;;;;;;5017015;28;20037;-80
2022/05/03 05:00:09;;;;;;;142.15;31.33;;;;;;;;;;5028808;28;20037;-80
2022/05/03 05:02:37;;;;;;;136.35;33.72;;;;;;;;;;5035555;28;20033;-81
2022/05/03 05:05:03;;;;;;;141.60;35.28;;;;;;;;;;5030826;28;20093;-75
2022/05/03 05:07:29;;;;;;;134.98;33.00;;;;;;;;;;5009719;28;20570;-75
2022/05/03 05:12:38;;;;;;;130.23;33.13;;;;;;;;;;5031641;28;20540;-76
2022/05/03 05:15:04;;;;;;;123.95;32.85;;;;;;;;;;5023215;28;20029;-74
2022/05/03 05:17:33;;;;;;;123.82;31.52;;;;;;;;;;5029642;28;20079;-75
2022/05/03 05:19:58;;;;;;;119.18;30.55;;;;;;;;;;5021950;28;20037;-75
2022/05/03 05:22:24;;;;;;;110.60;29.05;;;;;;;;;;5011292;28;20036;-75
2022/05/03 05:24:50;;;;;;;104.43;29.50;;;;;;;;;;5026447;28;20033;-75
2022/05/03 05:27:16;;;;;;;117.38;30.00;;;;;;;;;;5023784;28;20033;-75
2022/05/03 05:29:42;;;;;;;104.60;30.13;;;;;;;;;;5025788;28;20087;-76
2022/05/03 05:32:08;;;;;;;87.93;27.48;;;;;;;;;;5029201;28;20028;-75
2022/05/03 05:34:34;;;;;;;91.63;27.63;;;;;;;;;;5013380;28;20037;-75
2022/05/03 05:36:59;;;;;;;91.07;27.35;;;;;;;;;;5025296;28;20041;-75
2022/05/03 05:39:25;;;;;;;105.00;27.58;;;;;;;;;;5010811;28;20037;-75
2022/05/03 05:41:56;;;;;;;91.03;26.88;;;;;;;;;;5025495;28;20541;-74
2022/05/03 05:44:22;;;;;;;94.53;27.15;;;;;;;;;;5024148;28;20631;-75
2022/05/03 05:46:48;;;;;;;96.80;27.00;;;;;;;;;;5022613;28;20092;-75
2022/05/03 05:49:13;;;;;;;94.15;27.25;;;;;;;;;;5005884;28;20037;-75
2022/05/03 05:51:39;;;;;;;87.55;26.17;;;;;;;;;;5005042;28;20038;-76
2022/05/03 05:54:04;;;;;;;87.43;25.42;;;;;;;;;;5041531;28;20290;-74
2022/05/03 05:56:30;;;;;;;85.75;25.50;;;;;;;;;;5021833;28;20038;-76
2022/05/03 05:58:56;;;;;;;91.47;25.48;;;;;;;;;;5021450;28;20029;-75
2022/05/03 06:01:38;;;;;;;94.90;26.13;;;;;;;;;;5021137;28;20040;-75
2022/05/03 06:04:04;;;;;;;95.32;27.20;;;;;;;;;;5041186;28;20033;-75
2022/05/03 06:06:30;;;;;;;98.85;27.38;;;;;;;;;;5023523;28;20033;-75
2022/05/03 06:08:56;;;;;;;111.60;26.85;;;;;;;;;;5022431;28;20029;-75
2022/05/03 06:11:21;;;;;;;97.15;27.60;;;;;;;;;;5020597;28;20048;-75
2022/05/03 06:13:47;;;;;;;98.20;26.65;;;;;;;;;;5009175;28;20048;-75
2022/05/03 06:16:13;;;;;;;105.57;27.50;;;;;;;;;;5008701;28;20057;-75
2022/05/03 06:18:39;;;;;;;99.78;27.20;;;;;;;;;;5008521;28;20057;-75
2022/05/03 06:21:07;;;;;;;104.53;26.83;;;;;;;;;;5024022;28;20064;-74
2022/05/03 06:23:33;;;;;;;116.35;28.27;;;;;;;;;;5026884;28;20029;-76
2022/05/03 06:25:59;;;;;;;98.90;27.10;;;;;;;;;;5021764;28;20080;-74
2022/05/03 06:28:24;;;;;;;107.30;28.63;;;;;;;;;;5027126;28;20046;-75
2022/05/03 06:30:50;;;;;;;117.60;28.88;;;;;;;;;;5021448;28;20156;-75
2022/05/03 06:33:15;;;;;;;112.63;28.60;;;;;;;;;;5025999;28;20514;-79
2022/05/03 06:35:41;;;;;;;122.53;30.33;;;;;;;;;;5027561;28;20562;-79
2022/05/03 06:38:07;;;;;;;112.88;28.65;;;;;;;;;;5025349;28;20026;-79
2022/05/03 06:40:32;;;;;;;121.55;29.38;;;;;;;;;;5028829;28;20025;-79
2022/05/03 06:42:58;;;;;;;118.38;28.80;;;;;;;;;;5010979;28;20045;-79
2022/05/03 06:45:24;;;;;;;110.95;29.05;;;;;;;;;;5022261;28;20045;-80
2022/05/03 06:47:50;;;;;;;115.47;29.60;;;;;;;;;;5004294;28;20045;-79
2022/05/03 06:50:15;;;;;;;103.05;28.15;;;;;;;;;;5029415;28;20025;-80
2022/05/03 06:52:42;;;;;;;96.57;28.63;;;;;;;;;;5026259;28;20031;-81
2022/05/03 06:55:08;;;;;;;102.28;28.38;;;;;;;;;;5027957;28;20041;-81
2022/05/03 06:57:35;;;;;;;99.57;28.10;;;;;;;;;;5025584;28;20040;-80
2022/05/03 07:00:02;;;;;;;95.90;27.65;;;;;;;;;;4989965;28;20064;-81
2022/05/03 07:02:30;;;;;;;91.03;27.25;;;;;;;;;;5026636;28;20033;-81
2022/05/03 07:04:56;;;;;;;93.15;27.67;;;;;;;;;;5022270;28;20040;-81
2022/05/03 07:07:22;;;;;;;91.85;27.83;;;;;;;;;;5025235;28;20406;-81
2022/05/03 07:09:47;;;;;;;87.15;27.23;;;;;;;;;;5004904;28;20021;-81
2022/05/03 07:12:13;;;;;;;90.57;26.40;;;;;;;;;;4989116;28;20136;-81
2022/05/03 07:14:38;;;;;;;88.32;27.02;;;;;;;;;;5025224;28;20120;-80
2022/05/03 07:17:05;;;;;;;87.03;27.27;;;;;;;;;;5008299;28;20033;-81
2022/05/03 07:24:58;;;;;;;96.70;28.20;;;;;;;;;;5022632;28;20055;-81
2022/05/03 07:27:24;;;;;;;83.53;27.20;;;;;;;;;;5010750;28;20488;-81
2022/05/03 07:29:49;;;;;;;87.07;26.50;;;;;;;;;;5031069;28;20112;-82
2022/05/03 07:32:37;;;;;;;86.88;29.38;;;;;;;;;;5022444;28;20039;-81
2022/05/03 07:35:02;;;;;;;77.03;25.83;;;;;;;;;;5004450;28;20032;-81
2022/05/03 07:37:28;;;;;;;83.43;27.52;;;;;;;;;;5030657;28;20540;-79
2022/05/03 07:39:53;;;;;;;82.30;28.63;;;;;;;;;;5006185;28;20072;-79
2022/05/03 07:42:19;;;;;;;80.50;25.35;;;;;;;;;;5019728;28;20483;-80
2022/05/03 07:44:44;;;;;;;71.85;27.02;;;;;;;;;;5013309;28;20112;-80
2022/05/03 07:47:10;;;;;;;85.85;27.52;;;;;;;;;;5024951;28;20173;-80
2022/05/03 07:49:35;;;;;;;76.78;25.88;;;;;;;;;;5027608;28;20034;-80
2022/05/03 07:52:01;;;;;;;74.93;25.17;;;;;;;;;;5004314;28;20033;-80
2022/05/03 07:54:29;;;;;;;79.38;26.88;;;;;;;;;;5008403;28;20496;-80
2022/05/03 07:56:55;;;;;;;70.57;26.67;;;;;;;;;;5010227;28;20296;-80
2022/05/03 07:59:23;;;;;;;69.63;25.95;;;;;;;;;;4993518;28;20040;-79
2022/05/03 08:01:49;;;;;;;80.38;27.45;;;;;;;;;;5026827;28;20365;-80
2022/05/03 08:04:14;;;;;;;76.82;26.88;;;;;;;;;;5025037;28;20034;-80
2022/05/03 08:06:39;;;;;;;79.70;27.60;;;;;;;;;;5009152;28;20590;-80
2022/05/03 08:09:05;;;;;;;75.72;27.48;;;;;;;;;;5022677;28;20098;-81
2022/05/03 08:11:31;;;;;;;71.95;26.15;;;;;;;;;;5011884;28;20288;-81
2022/05/03 08:13:56;;;;;;;74.47;25.08;;;;;;;;;;5024923;28;20029;-80
2022/05/03 08:16:22;;;;;;;71.00;25.20;;;;;;;;;;5004173;28;20168;-79
2022/05/03 08:18:48;;;;;;;69.25;25.30;;;;;;;;;;5019877;28;20026;-80
2022/05/03 08:21:15;;;;;;;74.30;26.63;;;;;;;;;;5018177;28;20041;-80
2022/05/03 08:23:41;;;;;;;69.25;24.52;;;;;;;;;;5006580;28;20483;-80
2022/05/03 08:26:07;;;;;;;64.07;24.67;;;;;;;;;;5020050;28;20033;-80
2022/05/03 08:28:33;;;;;;;70.55;25.20;;;;;;;;;;5023913;28;20472;-80
2022/05/03 08:30:59;;;;;;;63.80;24.52;;;;;;;;;;5022973;28;20443;-80
2022/05/03 08:33:26;;;;;;;65.28;23.38;;;;;;;;;;4993759;28;20041;-81
2022/05/03 08:35:51;;;;;;;69.10;23.63;;;;;;;;;;5022258;28;22550;-80
2022/05/03 08:43:50;;;;;;;71.50;23.40;;;;;;;;;;5019841;28;20128;-76
2022/05/03 08:46:18;;;;;;;64.30;23.52;;;;;;;;;;5024775;28;20053;-76
2022/05/03 08:48:46;;;;;;;66.18;23.60;;;;;;;;;;5026316;28;20029;-76
2022/05/03 08:51:16;;;;;;;61.78;23.23;;;;;;;;;;5022779;28;20034;-76
2022/05/03 08:53:42;;;;;;;70.07;23.55;;;;;;;;;;5024006;28;20033;-76
2022/05/03 08:56:07;;;;;;;63.08;24.38;;;;;;;;;;5016677;28;20032;-76
2022/05/03 08:58:33;;;;;;;57.88;20.90;;;;;;;;;;5028257;28;20034;-76
2022/05/03 09:00:59;;;;;;;59.38;22.02;;;;;;;;;;5013813;28;20346;-76
2022/05/03 09:03:24;;;;;;;69.05;23.58;;;;;;;;;;4990544;28;20400;-76
2022/05/03 09:05:52;;;;;;;62.13;22.35;;;;;;;;;;5021072;28;20022;-76
2022/05/03 09:08:22;;;;;;;57.30;21.98;;;;;;;;;;5006116;28;20541;-76
2022/05/03 09:10:48;;;;;;;60.38;22.63;;;;;;;;;;5018492;28;20037;-76
2022/05/03 09:13:20;;;;;;;66.93;23.25;;;;;;;;;;5020143;28;20029;-80
2022/05/03 09:15:50;;;;;;;67.93;23.40;;;;;;;;;;5040650;28;20095;-81
2022/05/03 09:18:20;;;;;;;56.15;21.08;;;;;;;;;;5028831;28;20037;-80
2022/05/03 09:26:19;;;;;;;61.63;22.58;;;;;;;;;;5030640;28;20086;-81
2022/05/03 09:28:52;;;;;;;58.40;22.23;;;;;;;;;;5044321;28;20017;-81
2022/05/03 09:31:31;;;;;;;58.08;21.52;;;;;;;;;;5024397;28;20034;-80
2022/05/03 09:33:58;;;;;;;58.45;23.20;;;;;;;;;;5031020;28;20029;-80
2022/05/03 09:36:24;;;;;;;64.82;23.02;;;;;;;;;;5028203;28;20040;-80
2022/05/03 09:38:53;;;;;;;64.53;23.17;;;;;;;;;;5027142;28;20112;-80
2022/05/03 09:41:19;;;;;;;62.63;23.73;;;;;;;;;;5025490;28;20040;-80
2022/05/03 09:44:01;;;;;;;61.83;23.38;;;;;;;;;;5028930;28;20128;-81
2022/05/03 09:46:27;;;;;;;53.08;21.98;;;;;;;;;;5026575;28;20033;-81
2022/05/03 09:48:54;;;;;;;55.63;20.92;;;;;;;;;;5005836;28;20030;-81
2022/05/03 09:51:21;;;;;;;55.90;21.60;;;;;;;;;;5040702;28;20067;-80
2022/05/03 09:54:00;;;;;;;52.58;20.80;;;;;;;;;;5028174;28;20029;-80
2022/05/03 09:56:28;;;;;;;43.00;19.52;;;;;;;;;;5025828;28;20040;-81
2022/05/03 09:59:06;;;;;;;44.28;19.30;;;;;;;;;;5027453;28;20014;-81
2022/05/03 10:01:34;;;;;;;45.72;19.00;;;;;;;;;;5028509;28;20022;-81
2022/05/03 10:04:00;;;;;;;38.45;17.42;;;;;;;;;;5011418;28;20468;-81
2022/05/03 10:06:26;;;;;;;40.60;17.40;;;;;;;;;;5026506;28;20112;-81
2022/05/03 10:08:52;;;;;;;48.75;19.08;;;;;;;;;;5035082;28;20083;-81
2022/05/03 10:11:18;;;;;;;38.25;16.88;;;;;;;;;;5013308;28;20037;-81
2022/05/03 10:13:45;;;;;;;50.55;17.73;;;;;;;;;;5031292;28;20021;-76
2022/05/03 10:21:50;;;;;;;40.35;17.02;;;;;;;;;;5030692;28;20052;-76
2022/05/03 10:24:16;;;;;;;36.88;16.80;;;;;;;;;;5019955;28;20456;-77
2022/05/03 10:27:03;;;;;;;35.05;17.08;;;;;;;;;;5029317;28;20033;-76
2022/05/03 10:29:35;;;;;;;37.20;16.55;;;;;;;;;;5022147;28;20354;-76
2022/05/03 10:32:07;;;;;;;48.58;17.63;;;;;;;;;;5026419;28;20029;-76
2022/05/03 10:34:59;;;;;;;43.15;16.45;;;;;;;;;;5026166;28;20087;-77
2022/05/03 10:37:33;;;;;;;42.75;17.98;;;;;;;;;;5025193;28;20033;-77
2022/05/03 10:40:00;;;;;;;47.50;17.70;;;;;;;;;;5019981;28;20396;-76
2022/05/03 10:42:31;;;;;;;57.67;18.10;;;;;;;;;;5011544;28;20057;-79
2022/05/03 10:44:59;;;;;;;38.00;16.55;;;;;;;;;;5020123;28;20036;-80
2022/05/03 10:47:49;;;;;;;43.58;16.70;;;;;;;;;;5027095;28;20107;-81
2022/05/03 10:50:15;;;;;;;42.13;17.00;;;;;;;;;;5027458;28;20022;-81
2022/05/03 10:52:59;;;;;;;41.42;16.40;;;;;;;;;;5023844;28;20037;-81
2022/05/03 10:55:31;;;;;;;42.00;17.35;;;;;;;;;;5028503;28;20021;-81
2022/05/03 10:58:20;;;;;;;45.03;16.65;;;;;;;;;;5024796;28;20047;-81
2022/05/03 11:01:06;;;;;;;41.13;16.73;;;;;;;;;;5024436;28;20030;-81
2022/05/03 11:03:40;;;;;;;42.13;17.38;;;;;;;;;;5018369;28;20022;-81
2022/05/03 11:06:27;;;;;;;36.42;16.90;;;;;;;;;;5028763;28;20496;-81
2022/05/03 11:11:54;;;;;;;35.20;15.98;;;;;;;;;;5031623;28;20034;-80
2022/05/03 11:14:20;;;;;;;33.22;15.73;;;;;;;;;;5008152;28;20550;-80
2022/05/03 11:17:05;;;;;;;41.90;17.75;;;;;;;;;;5023358;28;20040;-80
2022/05/03 11:19:35;;;;;;;36.08;16.63;;;;;;;;;;5025217;28;20033;-80
2022/05/03 11:22:01;;;;;;;39.40;17.13;;;;;;;;;;5025369;28;20886;-80
2022/05/03 11:24:29;;;;;;;33.70;16.50;;;;;;;;;;5025656;28;20044;-80
2022/05/03 11:27:01;;;;;;;35.60;16.67;;;;;;;;;;5028504;28;20056;-80
2022/05/03 11:29:32;;;;;;;35.83;17.20;;;;;;;;;;5027218;28;20509;-80
2022/05/03 11:32:01;;;;;;;32.17;16.17;;;;;;;;;;5010422;28;20140;-80
2022/05/03 11:34:27;;;;;;;32.78;16.48;;;;;;;;;;5025838;28;20459;-80
2022/05/03 11:36:54;;;;;;;39.42;17.33;;;;;;;;;;5026719;28;20029;-80
2022/05/03 11:39:21;;;;;;;42.17;18.88;;;;;;;;;;5024528;28;20031;-80
2022/05/03 11:41:47;;;;;;;41.80;18.55;;;;;;;;;;5024015;28;20039;-81
2022/05/03 11:44:14;;;;;;;41.78;18.73;;;;;;;;;;5009569;28;20514;-77
2022/05/03 11:46:41;;;;;;;40.30;18.02;;;;;;;;;;5009649;28;20045;-77
2022/05/03 11:49:08;;;;;;;42.63;18.00;;;;;;;;;;5028416;28;20037;-76
2022/05/03 11:57:36;;;;;;;47.92;19.45;;;;;;;;;;5016179;28;20032;-76
2022/05/03 12:00:05;;;;;;;42.97;18.08;;;;;;;;;;5022963;28;20045;-76
2022/05/03 12:02:36;;;;;;;48.78;18.77;;;;;;;;;;5025281;28;20017;-76
2022/05/03 12:05:04;;;;;;;42.13;17.88;;;;;;;;;;5024900;28;20112;-76
2022/05/03 12:07:53;;;;;;;35.47;16.60;;;;;;;;;;5032576;28;20033;-76
2022/05/03 12:10:29;;;;;;;34.83;15.50;;;;;;;;;;5025630;28;20053;-77
2022/05/03 12:13:27;;;;;;;36.83;17.02;;;;;;;;;;5022860;28;20044;-76
2022/05/03 12:15:58;;;;;;;33.00;15.95;;;;;;;;;;5017930;28;20084;-76
2022/05/03 12:18:36;;;;;;;29.73;14.60;;;;;;;;;;5024050;28;20037;-76
2022/05/03 12:21:17;;;;;;;37.45;14.90;;;;;;;;;;5019636;28;20077;-76
2022/05/03 12:23:43;;;;;;;38.25;16.67;;;;;;;;;;5026342;28;20120;-76
2022/05/03 12:26:12;;;;;;;36.83;15.45;;;;;;;;;;5024580;28;20040;-76
2022/05/03 12:28:46;;;;;;;32.17;15.07;;;;;;;;;;5029386;28;20021;-76
2022/05/03 12:31:13;;;;;;;29.60;14.60;;;;;;;;;;5019070;28;20040;-76
2022/05/03 12:33:49;;;;;;;34.50;16.33;;;;;;;;;;5013772;28;20079;-76
2022/05/03 12:36:37;;;;;;;33.70;15.82;;;;;;;;;;5022310;28;20064;-76
2022/05/03 12:39:17;;;;;;;44.78;16.60;;;;;;;;;;5022787;28;20033;-76
2022/05/03 12:41:53;;;;;;;41.83;17.38;;;;;;;;;;5019950;28;20033;-76
2022/05/03 12:44:21;;;;;;;42.60;16.40;;;;;;;;;;5025227;28;20186;-76
2022/05/03 12:46:49;;;;;;;33.05;15.77;;;;;;;;;;5004982;28;20081;-76
2022/05/03 12:49:15;;;;;;;38.00;15.45;;;;;;;;;;5025012;28;20026;-76
2022/05/03 12:51:43;;;;;;;45.17;16.10;;;;;;;;;;5005910;28;20655;-76
2022/05/03 12:54:10;;;;;;;40.33;16.75;;;;;;;;;;5024401;28;20025;-76
2022/05/03 12:59:21;;;;;;;34.20;16.65;;;;;;;;;;5028216;28;20177;-77
2022/05/03 13:01:51;;;;;;;31.95;15.65;;;;;;;;;;4994114;28;20025;-77
2022/05/03 13:04:20;;;;;;;33.88;16.30;;;;;;;;;;5011282;28;20131;-77
2022/05/03 13:06:47;;;;;;;38.28;15.63;;;;;;;;;;5024795;28;20029;-76
2022/05/03 13:09:13;;;;;;;30.98;14.85;;;;;;;;;;5022061;28;20037;-76
2022/05/03 13:11:39;;;;;;;29.67;14.45;;;;;;;;;;5008247;28;20064;-76
2022/05/03 13:14:06;;;;;;;36.50;15.50;;;;;;;;;;5023633;28;20252;-77
2022/05/03 13:16:32;;;;;;;36.90;15.95;;;;;;;;;;5021690;28;20512;-76
2022/05/03 13:18:57;;;;;;;33.65;15.02;;;;;;;;;;5006660;28;20041;-76
2022/05/03 13:21:23;;;;;;;28.80;12.68;;;;;;;;;;4993293;28;20075;-77
2022/05/03 13:23:49;;;;;;;37.90;16.05;;;;;;;;;;5012641;28;20124;-77
2022/05/03 13:26:15;;;;;;;40.63;16.38;;;;;;;;;;5022806;28;20037;-77
2022/05/03 13:28:41;;;;;;;42.00;16.13;;;;;;;;;;5021003;28;20026;-77
2022/05/03 13:31:07;;;;;;;37.92;16.15;;;;;;;;;;5028122;28;20040;-77
2022/05/03 13:33:32;;;;;;;43.55;16.80;;;;;;;;;;5021798;28;20399;-76
2022/05/03 13:41:26;;;;;;;31.17;14.75;;;;;;;;;;5010650;28;20044;-77
2022/05/03 13:43:52;;;;;;;34.00;14.73;;;;;;;;;;5025224;28;20029;-77
2022/05/03 13:46:18;;;;;;;26.05;13.60;;;;;;;;;;5026365;28;20076;-78
2022/05/03 13:48:44;;;;;;;26.58;13.05;;;;;;;;;;5029976;28;20036;-78
2022/05/03 13:51:10;;;;;;;24.65;12.32;;;;;;;;;;5028680;28;20057;-80
2022/05/03 13:53:36;;;;;;;27.90;14.02;;;;;;;;;;5025072;28;20068;-77
2022/05/03 13:56:01;;;;;;;28.55;13.25;;;;;;;;;;5022517;28;20032;-77
2022/05/03 13:58:27;;;;;;;28.65;13.65;;;;;;;;;;5008357;28;20037;-77
2022/05/03 14:00:53;;;;;;;26.55;13.48;;;;;;;;;;5004850;28;20034;-75
2022/05/03 14:03:18;;;;;;;28.92;12.85;;;;;;;;;;5008837;28;20029;-76
2022/05/03 14:05:44;;;;;;;29.55;14.00;;;;;;;;;;4988467;28;20064;-76
2022/05/03 14:08:10;;;;;;;27.58;13.70;;;;;;;;;;5013545;28;20022;-76
2022/05/03 14:10:43;;;;;;;33.58;13.50;;;;;;;;;;5023898;28;20030;-76
2022/05/03 14:13:09;;;;;;;24.73;13.60;;;;;;;;;;5025968;28;20104;-79
2022/05/03 14:15:35;;;;;;;28.08;12.82;;;;;;;;;;5022387;28;20026;-80
2022/05/03 14:18:03;;;;;;;28.15;13.10;;;;;;;;;;5023573;28;20041;-81
2022/05/03 14:20:29;;;;;;;29.83;14.18;;;;;;;;;;5027632;28;20025;-81
2022/05/03 14:22:55;;;;;;;27.85;14.30;;;;;;;;;;5027100;28;20112;-82
2022/05/03 14:25:23;;;;;;;36.78;14.48;;;;;;;;;;5024015;28;20297;-81
2022/05/03 14:27:49;;;;;;;27.02;13.23;;;;;;;;;;5020918;28;20373;-80
2022/05/03 14:30:15;;;;;;;29.80;13.85;;;;;;;;;;5023672;28;20029;-80
2022/05/03 14:32:41;;;;;;;28.10;13.70;;;;;;;;;;5006590;28;20064;-81
2022/05/03 14:35:08;;;;;;;26.65;13.95;;;;;;;;;;5017790;28;20067;-80
2022/05/03 14:37:34;;;;;;;28.33;13.07;;;;;;;;;;5007599;28;20048;-80
2022/05/03 14:40:00;;;;;;;29.27;13.00;;;;;;;;;;5006368;28;20531;-80
2022/05/03 14:42:26;;;;;;;27.63;13.70;;;;;;;;;;5010788;28;20083;-80
2022/05/03 14:44:52;;;;;;;30.35;13.93;;;;;;;;;;5004952;28;20037;-75
2022/05/03 14:47:18;;;;;;;31.13;14.02;;;;;;;;;;5015630;28;20065;-75
2022/05/03 14:49:44;;;;;;;30.02;13.40;;;;;;;;;;4983266;28;20030;-75
2022/05/03 14:52:11;;;;;;;27.65;13.35;;;;;;;;;;5020349;28;20038;-75
2022/05/03 14:54:38;;;;;;;28.48;13.95;;;;;;;;;;5013698;28;20318;-75
2022/05/03 15:02:54;;;;;;;28.33;11.93;;;;;;;;;;5026906;28;20087;-75
2022/05/03 15:05:21;;;;;;;23.80;11.95;;;;;;;;;;5020997;28;20091;-75
2022/05/03 15:07:51;;;;;;;28.73;13.35;;;;;;;;;;5000689;28;20037;-76
2022/05/03 15:10:17;;;;;;;31.85;12.75;;;;;;;;;;5025798;28;20451;-75
2022/05/03 15:12:43;;;;;;;29.88;13.85;;;;;;;;;;5026399;28;20032;-75
2022/05/03 15:15:11;;;;;;;25.77;12.93;;;;;;;;;;5022406;28;20106;-75
2022/05/03 15:17:37;;;;;;;27.83;11.93;;;;;;;;;;5009824;28;20036;-75
2022/05/03 15:20:03;;;;;;;18.85;11.23;;;;;;;;;;5005653;28;20033;-76
2022/05/03 15:25:12;;;;;;;20.13;9.90;;;;;;;;;;5020943;28;20053;-76
2022/05/03 15:27:38;;;;;;;21.17;10.70;;;;;;;;;;5009504;28;20397;-76